createdAt,value
2022-11-21T00:00:20.303Z,96930.00
2022-11-21T00:02:46.652Z,96932.84
2022-11-21T00:05:12.994Z,96925.03
2022-11-21T00:07:39.352Z,96923.22
2022-11-21T00:10:06.375Z,96926.91
2022-11-21T00:12:32.720Z,96935.06
2022-11-21T00:14:59.087Z,96943.72
2022-11-21T00:17:25.494Z,96940.19
2022-11-21T00:19:51.859Z,96936.69
2022-11-21T00:22:18.172Z,96930.50
2022-11-21T00:24:44.672Z,96918.00
2022-11-21T00:27:10.986Z,96932.00
2022-11-21T00:29:37.367Z,96932.25
2022-11-21T00:32:03.719Z,96934.66
2022-11-21T00:34:30.177Z,96935.47
2022-11-21T00:36:56.501Z,96931.81
2022-11-21T00:39:22.871Z,96942.94
2022-11-21T00:41:49.197Z,96943.44
2022-11-21T00:44:15.582Z,96942.72
2022-11-21T00:46:42.137Z,96943.72
2022-11-21T00:49:08.494Z,96939.22
2022-11-21T00:51:34.821Z,96946.16
2022-11-21T00:54:01.226Z,96946.16
2022-11-21T00:56:27.561Z,96954.13
2022-11-21T00:58:53.926Z,96945.00
2022-11-21T01:01:20.365Z,96956.25
2022-11-21T01:03:46.832Z,96948.69
2022-11-21T01:06:14.111Z,96950.25
2022-11-21T01:08:41.224Z,96951.06
2022-11-21T01:11:11.724Z,96942.50
2022-11-21T01:13:38.145Z,96954.69
2022-11-21T01:16:05.178Z,96930.31
2022-11-21T01:18:31.494Z,96938.16
2022-11-21T01:21:04.626Z,96945.03
2022-11-21T01:23:30.955Z,96928.16
2022-11-21T01:26:04.223Z,96942.50
2022-11-21T01:28:30.632Z,96944.31
2022-11-21T01:31:03.038Z,96945.63
2022-11-21T01:33:29.345Z,96942.44
2022-11-21T01:35:55.706Z,96940.16
2022-11-21T01:38:22.143Z,96937.56
2022-11-21T01:40:48.522Z,96942.13
2022-11-21T01:43:15.180Z,96944.03
2022-11-21T01:46:07.983Z,96940.69
2022-11-21T01:48:43.476Z,96943.94
2022-11-21T01:51:09.793Z,96941.47
2022-11-21T01:53:36.115Z,96946.72
2022-11-21T01:56:02.480Z,96943.19
2022-11-21T01:58:29.114Z,96948.78
2022-11-21T02:00:55.499Z,96951.13
2022-11-21T02:03:22.899Z,96960.09
2022-11-21T02:05:49.286Z,96956.56
2022-11-21T02:08:19.461Z,96946.00
2022-11-21T02:11:09.078Z,96951.59
2022-11-21T02:13:35.461Z,96961.28
2022-11-21T02:16:02.120Z,96959.88
2022-11-21T02:18:28.522Z,96954.94
2022-11-21T02:20:59.384Z,96960.03
2022-11-21T02:23:33.101Z,96952.19
2022-11-21T02:25:59.434Z,96962.56
2022-11-21T02:28:26.921Z,96969.13
2022-11-21T02:30:53.256Z,96962.50
2022-11-21T02:33:19.829Z,96963.09
2022-11-21T02:35:55.289Z,96959.72
2022-11-21T02:38:31.866Z,96959.22
2022-11-21T02:41:02.865Z,96957.44
2022-11-21T02:43:30.715Z,96955.41
2022-11-21T02:45:57.850Z,96953.16
2022-11-21T02:48:24.319Z,96954.75
2022-11-21T02:50:50.688Z,96955.91
2022-11-21T02:53:17.725Z,96968.81
2022-11-21T02:55:44.238Z,96961.34
2022-11-21T02:58:10.765Z,96965.69
2022-11-21T03:00:38.459Z,96967.34
2022-11-21T03:03:04.955Z,96969.25
2022-11-21T03:05:31.321Z,96967.41
2022-11-21T03:07:57.903Z,96965.97
2022-11-21T03:10:24.282Z,96968.31
2022-11-21T03:12:50.613Z,96966.19
2022-11-21T03:15:17.090Z,96962.50
2022-11-21T03:17:43.406Z,96963.63
2022-11-21T03:20:09.978Z,96973.66
2022-11-21T03:22:36.367Z,96971.59
2022-11-21T03:25:02.715Z,96962.06
2022-11-21T03:27:29.032Z,96973.34
2022-11-21T03:29:55.386Z,96979.91
2022-11-21T03:32:21.715Z,96978.41
2022-11-21T03:34:48.060Z,96972.72
2022-11-21T03:37:14.382Z,96975.38
2022-11-21T03:39:40.718Z,96972.09
2022-11-21T03:42:07.074Z,96981.69
2022-11-21T03:44:33.424Z,96989.03
2022-11-21T03:46:59.771Z,96985.06
2022-11-21T03:49:26.093Z,96987.44
2022-11-21T03:51:52.631Z,96986.19
2022-11-21T03:54:18.988Z,96992.44
2022-11-21T03:56:45.312Z,97005.22
2022-11-21T03:59:11.660Z,96999.31
2022-11-21T04:01:38.051Z,97009.22
2022-11-21T04:04:04.781Z,97014.78
2022-11-21T04:06:33.349Z,97014.19
2022-11-21T04:08:59.701Z,97012.41
2022-11-21T04:11:26.167Z,97012.09
2022-11-21T04:13:52.675Z,97013.88
2022-11-21T04:16:19.116Z,97018.03
2022-11-21T04:18:45.438Z,97021.94
2022-11-21T04:21:11.806Z,97018.13
2022-11-21T04:23:38.136Z,97032.53
2022-11-21T04:26:04.472Z,97030.81
2022-11-21T04:28:31.397Z,97030.81
2022-11-21T04:31:03.724Z,97030.72
2022-11-21T04:33:32.108Z,97019.16
2022-11-21T04:35:58.465Z,97029.41
2022-11-21T04:38:24.874Z,97019.31
2022-11-21T04:40:51.218Z,97028.00
2022-11-21T04:43:17.571Z,97027.78
2022-11-21T04:45:44.649Z,97035.34
2022-11-21T04:48:11.267Z,97043.06
2022-11-21T04:50:37.935Z,97030.06
2022-11-21T04:53:04.258Z,97038.53
2022-11-21T04:55:31.048Z,97035.25
2022-11-21T04:57:57.482Z,97030.91
2022-11-21T05:00:24.589Z,97032.03
2022-11-21T05:02:51.270Z,97039.59
2022-11-21T05:05:17.624Z,97029.50
2022-11-21T05:07:43.980Z,97030.91
2022-11-21T05:10:10.360Z,97025.97
2022-11-21T05:12:55.445Z,97037.09
2022-11-21T05:15:24.581Z,97021.75
2022-11-21T05:17:51.455Z,97028.44
2022-11-21T05:20:18.838Z,97032.97
2022-11-21T05:22:49.732Z,97030.84
2022-11-21T05:25:16.417Z,97033.47
2022-11-21T05:27:42.814Z,97031.38
2022-11-21T05:30:09.498Z,97027.16
2022-11-21T05:32:35.823Z,97031.97
2022-11-21T05:35:02.301Z,97029.34
2022-11-21T05:37:28.627Z,97032.47
2022-11-21T05:39:54.969Z,97029.16
2022-11-21T05:42:41.264Z,97022.59
2022-11-21T05:45:07.987Z,97011.34
2022-11-21T05:47:34.403Z,97008.09
2022-11-21T05:50:00.722Z,97013.94
2022-11-21T05:52:27.890Z,97024.44
2022-11-21T05:54:54.219Z,97025.06
2022-11-21T05:57:20.539Z,97024.94
2022-11-21T05:59:46.884Z,97022.03
2022-11-21T06:02:32.031Z,97027.06
2022-11-21T06:04:58.358Z,97026.06
2022-11-21T06:07:24.745Z,97038.25
2022-11-21T06:09:51.106Z,97033.75
2022-11-21T06:12:21.411Z,97035.88
2022-11-21T06:14:50.463Z,97049.34
2022-11-21T06:17:16.843Z,97049.97
2022-11-21T06:19:43.230Z,97044.13
2022-11-21T06:22:09.581Z,97054.31
2022-11-21T06:24:35.899Z,97045.44
2022-11-21T06:27:02.247Z,97045.81
2022-11-21T06:29:28.578Z,97050.66
2022-11-21T06:31:56.001Z,97049.19
2022-11-21T06:34:22.334Z,97054.97
2022-11-21T06:36:49.477Z,97075.31
2022-11-21T06:39:16.182Z,97069.88
2022-11-21T06:41:42.546Z,97071.28
2022-11-21T06:44:08.937Z,97076.13
2022-11-21T06:46:35.277Z,97076.34
2022-11-21T06:49:01.641Z,97075.13
2022-11-21T06:51:27.971Z,97069.78
2022-11-21T06:53:57.806Z,97078.56
2022-11-21T06:56:24.425Z,97089.81
2022-11-21T06:58:50.757Z,97091.63
2022-11-21T07:01:17.247Z,97087.34
2022-11-21T07:03:43.603Z,97087.56
2022-11-21T07:06:10.010Z,97092.25
2022-11-21T07:08:36.474Z,97090.47
2022-11-21T07:11:24.292Z,97098.56
2022-11-21T07:13:49.878Z,97100.22
2022-11-21T07:16:16.266Z,97103.44
2022-11-21T07:18:42.721Z,97104.59
2022-11-21T07:21:09.262Z,97112.25
2022-11-21T07:23:35.646Z,97108.94
2022-11-21T07:26:02.463Z,97107.25
2022-11-21T07:28:29.837Z,97115.53
2022-11-21T07:30:57.036Z,97117.66
2022-11-21T07:33:23.361Z,97118.94
2022-11-21T07:35:49.705Z,97113.22
2022-11-21T07:38:16.051Z,97111.41
2022-11-21T07:40:42.410Z,97110.38
2022-11-21T07:43:11.085Z,97108.38
2022-11-21T07:45:37.574Z,97123.00
2022-11-21T07:48:04.660Z,97116.03
2022-11-21T07:50:31.035Z,97112.84
2022-11-21T07:52:58.106Z,97111.22
2022-11-21T07:55:24.514Z,97110.50
2022-11-21T07:58:17.305Z,97105.78
2022-11-21T08:00:43.806Z,97114.84
2022-11-21T08:03:12.033Z,97118.16
2022-11-21T08:05:39.002Z,97111.31
2022-11-21T08:08:08.415Z,97117.78
2022-11-21T08:10:37.257Z,97110.41
2022-11-21T08:13:03.888Z,97116.72
2022-11-21T08:15:30.229Z,97114.81
2022-11-21T08:17:56.556Z,97118.22
2022-11-21T08:20:22.942Z,97124.25
2022-11-21T08:22:49.294Z,97114.91
2022-11-21T08:25:15.615Z,97107.53
2022-11-21T08:27:42.306Z,97114.75
2022-11-21T08:30:09.277Z,97118.31
2022-11-21T08:32:35.751Z,97119.00
2022-11-21T08:35:02.157Z,97118.69
2022-11-21T08:37:29.326Z,97114.72
2022-11-21T08:39:56.072Z,97109.63
2022-11-21T08:42:22.453Z,97099.50
2022-11-21T08:44:48.813Z,97103.22
2022-11-21T08:47:15.156Z,97099.22
2022-11-21T08:49:44.440Z,97096.38
2022-11-21T08:52:10.801Z,97094.03
2022-11-21T08:54:37.130Z,97099.34
2022-11-21T08:57:03.524Z,97093.66
2022-11-21T08:59:29.842Z,97080.44
2022-11-21T09:01:56.304Z,97074.25
2022-11-21T09:04:22.636Z,97073.31
2022-11-21T09:06:49.020Z,97070.41
2022-11-21T09:09:18.277Z,97057.16
2022-11-21T09:11:47.129Z,97066.78
2022-11-21T09:14:32.135Z,97048.69
2022-11-21T09:17:17.455Z,97047.09
2022-11-21T09:19:43.809Z,97052.69
2022-11-21T09:22:10.245Z,97051.53
2022-11-21T09:24:36.968Z,97054.34
2022-11-21T09:27:03.354Z,97051.13
2022-11-21T09:29:29.938Z,97049.06
2022-11-21T09:31:56.380Z,97055.44
2022-11-21T09:34:22.696Z,97059.84
2022-11-21T09:36:49.061Z,97061.53
2022-11-21T09:39:15.465Z,97061.22
2022-11-21T09:41:57.250Z,97069.44
2022-11-21T09:44:32.629Z,97062.06
2022-11-21T09:47:22.896Z,97069.91
2022-11-21T09:50:09.449Z,97055.50
2022-11-21T09:52:56.350Z,97062.97
2022-11-21T09:55:52.126Z,97055.41
2022-11-21T09:58:37.105Z,97050.28
2022-11-21T10:01:03.585Z,97050.09
2022-11-21T10:03:30.785Z,97045.09
2022-11-21T10:05:57.109Z,97041.56
2022-11-21T10:08:27.488Z,97056.38
2022-11-21T10:10:54.960Z,97049.47
2022-11-21T10:13:28.875Z,97054.66
2022-11-21T10:15:57.460Z,97045.84
2022-11-21T10:18:42.373Z,97046.00
2022-11-21T10:21:26.025Z,97044.09
2022-11-21T10:24:08.852Z,97042.81
2022-11-21T10:26:42.355Z,97038.28
2022-11-21T10:29:27.745Z,97035.03
2022-11-21T10:31:54.673Z,97035.47
2022-11-21T10:34:22.634Z,97025.38
2022-11-21T10:36:49.940Z,97030.06
2022-11-21T10:39:25.003Z,97016.09
2022-11-21T10:41:53.377Z,97013.19
2022-11-21T10:44:47.609Z,97018.34
2022-11-21T10:47:27.324Z,97008.84
2022-11-21T10:49:55.599Z,97005.00
2022-11-21T10:52:22.062Z,96998.03
2022-11-21T10:55:03.739Z,96990.69
2022-11-21T10:57:48.709Z,96990.25
2022-11-21T11:00:16.485Z,96986.53
2022-11-21T11:02:43.511Z,96983.25
2022-11-21T11:05:17.369Z,96988.50
2022-11-21T11:07:43.753Z,96977.44
2022-11-21T11:10:26.911Z,96971.34
2022-11-21T11:13:43.973Z,96982.59
2022-11-21T11:15:58.875Z,96979.91
2022-11-21T11:18:25.267Z,96979.91
2022-11-21T11:20:51.753Z,96967.31
2022-11-21T11:23:21.066Z,96969.13
2022-11-21T11:25:48.154Z,96975.88
2022-11-21T11:28:14.507Z,96968.03
2022-11-21T11:30:40.837Z,96962.34
2022-11-21T11:33:27.411Z,96967.25
2022-11-21T11:35:54.036Z,96967.44
2022-11-21T11:38:20.421Z,96958.88
2022-11-21T11:40:47.485Z,96952.94
2022-11-21T11:43:32.611Z,96945.00
2022-11-21T11:46:23.493Z,96945.97
2022-11-21T11:49:17.455Z,96938.56
2022-11-21T11:51:53.246Z,96940.72
2022-11-21T11:54:30.040Z,96936.38
2022-11-21T11:56:56.368Z,96927.72
2022-11-21T11:59:23.937Z,96925.13
2022-11-21T12:01:51.858Z,96924.00
2022-11-21T12:04:21.823Z,96917.81
2022-11-21T12:08:05.902Z,96917.63
2022-11-21T12:09:36.163Z,96915.53
2022-11-21T12:12:08.361Z,96911.50
2022-11-21T12:14:56.577Z,96909.88
2022-11-21T12:17:25.506Z,96900.53
2022-11-21T12:19:51.834Z,96887.53
2022-11-21T12:22:18.184Z,96884.78
2022-11-21T12:24:44.533Z,96886.66
2022-11-21T12:27:17.004Z,96875.88
2022-11-21T12:29:58.818Z,96880.44
2022-11-21T12:32:38.987Z,96880.44
2022-11-21T12:35:14.598Z,96874.97
2022-11-21T12:37:40.885Z,96873.41
2022-11-21T12:40:10.005Z,96870.22
2022-11-21T12:42:51.576Z,96871.50
2022-11-21T12:45:30.007Z,96869.13
2022-11-21T12:48:18.203Z,96864.66
2022-11-21T12:51:25.887Z,96863.38
2022-11-21T12:54:30.202Z,96865.19
2022-11-21T12:56:59.249Z,96855.84
2022-11-21T12:59:25.674Z,96851.34
2022-11-21T13:01:58.334Z,96850.41
2022-11-21T13:04:25.285Z,96850.38
2022-11-21T13:06:51.605Z,96843.16
2022-11-21T13:09:20.455Z,96832.84
2022-11-21T13:11:59.038Z,96823.03
2022-11-21T13:14:28.471Z,96813.38
2022-11-21T13:17:27.544Z,96817.69
2022-11-21T13:19:53.894Z,96812.91
2022-11-21T13:22:35.256Z,96816.94
2022-11-21T13:25:09.653Z,96816.63
2022-11-21T13:27:38.870Z,96808.78
2022-11-21T13:30:11.572Z,96816.66
2022-11-21T13:32:38.486Z,96821.03
2022-11-21T13:35:21.111Z,96816.03
2022-11-21T13:37:50.617Z,96816.22
2022-11-21T13:40:26.036Z,96812.34
2022-11-21T13:43:32.670Z,96816.50
2022-11-21T13:45:59.164Z,96817.16
2022-11-21T13:48:28.590Z,96808.34
2022-11-21T13:51:13.810Z,96805.44
2022-11-21T13:53:56.355Z,96809.47
2022-11-21T13:56:26.014Z,96813.00
2022-11-21T13:58:55.419Z,96818.63
2022-11-21T14:01:34.291Z,96811.41
2022-11-21T14:04:19.400Z,96810.59
2022-11-21T14:06:45.852Z,96808.19
2022-11-21T14:09:25.724Z,96795.97
2022-11-21T14:11:52.122Z,96801.91
2022-11-21T14:14:29.063Z,96789.72
2022-11-21T14:17:03.353Z,96787.28
2022-11-21T14:19:32.148Z,96787.28
2022-11-21T14:21:58.975Z,96783.28
2022-11-21T14:24:25.304Z,96784.72
2022-11-21T14:26:52.190Z,96778.31
2022-11-21T14:29:47.899Z,96785.34
2022-11-21T14:32:14.483Z,96773.13
2022-11-21T14:34:40.817Z,96766.38
2022-11-21T14:39:28.951Z,96757.06
2022-11-21T14:41:48.417Z,96758.09
2022-11-21T14:44:16.117Z,96750.06
2022-11-21T14:46:43.096Z,96746.84
2022-11-21T14:49:12.366Z,96753.28
2022-11-21T14:51:38.836Z,96742.53
2022-11-21T14:54:05.319Z,96752.00
2022-11-21T14:56:32.892Z,96749.75
2022-11-21T14:59:01.514Z,96737.06
2022-11-21T15:01:32.169Z,96728.59
2022-11-21T15:04:01.233Z,96730.69
2022-11-21T15:06:29.974Z,96729.56
2022-11-21T15:10:24.804Z,96721.38
2022-11-21T15:11:47.015Z,96722.66
2022-11-21T15:14:35.836Z,96715.28
2022-11-21T15:17:04.389Z,96714.94
2022-11-21T15:19:32.668Z,96714.31
2022-11-21T15:22:01.253Z,96712.72
2022-11-21T15:24:33.694Z,96707.41
2022-11-21T15:27:00.836Z,96703.72
2022-11-21T15:29:27.462Z,96704.78
2022-11-21T15:32:15.845Z,96707.50
2022-11-21T15:34:43.163Z,96700.13
2022-11-21T15:37:15.457Z,96708.81
2022-11-21T15:39:45.905Z,96710.91
2022-11-21T15:42:31.161Z,96704.00
2022-11-21T15:45:01.692Z,96687.00
2022-11-21T15:47:28.636Z,96687.47
2022-11-21T15:49:55.190Z,96691.63
2022-11-21T15:52:21.669Z,96685.06
2022-11-21T15:54:48.365Z,96689.25
2022-11-21T15:57:16.784Z,96693.28
2022-11-21T15:59:43.640Z,96692.97
2022-11-21T16:02:12.452Z,96683.69
2022-11-21T16:04:38.987Z,96686.59
2022-11-21T16:07:05.564Z,96677.06
2022-11-21T16:09:32.115Z,96677.88
2022-11-21T16:11:58.586Z,96679.78
2022-11-21T16:14:25.079Z,96681.41
2022-11-21T16:16:51.596Z,96677.88
2022-11-21T16:19:18.099Z,96672.03
2022-11-21T16:21:44.617Z,96674.44
2022-11-21T16:24:11.159Z,96667.38
2022-11-21T16:26:37.808Z,96657.13
2022-11-21T16:29:07.361Z,96660.84
2022-11-21T16:31:34.422Z,96638.66
2022-11-21T16:34:01.074Z,96637.53
2022-11-21T16:36:31.170Z,96632.72
2022-11-21T16:39:00.590Z,96640.06
2022-11-21T16:41:30.079Z,96631.69
2022-11-21T16:43:56.626Z,96632.16
2022-11-21T16:46:24.440Z,96633.59
2022-11-21T16:49:01.693Z,96621.88
2022-11-21T16:51:28.444Z,96629.31
2022-11-21T16:53:54.951Z,96627.16
2022-11-21T16:56:21.466Z,96616.91
2022-11-21T16:58:48.011Z,96617.38
2022-11-21T17:01:18.591Z,96612.88
2022-11-21T17:03:47.210Z,96614.63
2022-11-21T17:06:15.027Z,96606.28
2022-11-21T17:08:41.514Z,96598.72
2022-11-21T17:11:17.029Z,96599.19
2022-11-21T17:13:43.966Z,96597.91
2022-11-21T17:16:11.141Z,96600.03
2022-11-21T17:18:37.799Z,96598.56
2022-11-21T17:21:08.950Z,96594.22
2022-11-21T17:23:36.554Z,96594.72
2022-11-21T17:26:07.642Z,96587.78
2022-11-21T17:28:34.466Z,96581.53
2022-11-21T17:31:05.924Z,96571.88
2022-11-21T17:33:32.413Z,96561.63
2022-11-21T17:35:58.891Z,96571.09
2022-11-21T17:38:25.384Z,96562.28
2022-11-21T17:41:01.954Z,96557.31
2022-11-21T17:43:28.835Z,96558.78
2022-11-21T17:46:00.994Z,96557.00
2022-11-21T17:48:29.330Z,96553.00
2022-11-21T17:51:04.062Z,96549.94
2022-11-21T17:53:31.877Z,96541.28
2022-11-21T17:55:59.758Z,96529.19
2022-11-21T17:58:27.417Z,96531.44
2022-11-21T18:00:59.531Z,96531.59
2022-11-21T18:03:26.513Z,96537.69
2022-11-21T18:06:00.626Z,96527.84
2022-11-21T18:08:29.862Z,96516.47
2022-11-21T18:10:56.355Z,96509.09
2022-11-21T18:13:22.825Z,96509.53
2022-11-21T18:15:49.299Z,96521.31
2022-11-21T18:18:15.769Z,96523.91
2022-11-21T18:20:42.282Z,96516.53
2022-11-21T18:23:08.793Z,96512.34
2022-11-21T18:25:38.433Z,96513.88
2022-11-21T18:28:04.953Z,96502.53
2022-11-21T18:30:31.893Z,96486.69
2022-11-21T18:32:58.420Z,96489.84
2022-11-21T18:35:26.346Z,96490.50
2022-11-21T18:37:52.950Z,96493.84
2022-11-21T18:40:19.441Z,96490.97
2022-11-21T18:42:47.100Z,96490.31
2022-11-21T18:45:13.646Z,96490.16
2022-11-21T18:47:41.158Z,96500.44
2022-11-21T18:50:07.833Z,96491.09
2022-11-21T18:52:35.100Z,96483.44
2022-11-21T18:55:01.577Z,96477.91
2022-11-21T18:57:28.047Z,96471.44
2022-11-21T18:59:54.626Z,96466.63
2022-11-21T19:02:21.142Z,96463.19
2022-11-21T19:04:47.742Z,96462.13
2022-11-21T19:07:14.264Z,96460.31
2022-11-21T19:09:41.558Z,96452.13
2022-11-21T19:12:08.015Z,96442.34
2022-11-21T19:14:34.492Z,96438.81
2022-11-21T19:17:00.971Z,96451.78
2022-11-21T19:19:36.489Z,96437.69
2022-11-21T19:22:04.594Z,96440.13
2022-11-21T19:24:31.189Z,96435.00
2022-11-21T19:26:57.678Z,96434.34
2022-11-21T19:29:24.191Z,96428.34
2022-11-21T19:31:50.854Z,96438.28
2022-11-21T19:34:17.411Z,96444.31
2022-11-21T19:36:44.418Z,96446.94
2022-11-21T19:39:11.217Z,96454.72
2022-11-21T19:41:37.698Z,96460.59
2022-11-21T19:44:04.217Z,96463.78
2022-11-21T19:46:35.592Z,96466.06
2022-11-21T19:49:02.159Z,96457.63
2022-11-21T19:51:36.343Z,96454.56
2022-11-21T19:54:03.665Z,96444.69
2022-11-21T19:56:30.176Z,96444.31
2022-11-21T19:58:56.853Z,96440.13
2022-11-21T20:01:24.992Z,96440.91
2022-11-21T20:03:56.051Z,96433.53
2022-11-21T20:06:30.717Z,96437.66
2022-11-21T20:09:02.192Z,96445.56
2022-11-21T20:11:29.595Z,96454.03
2022-11-21T20:13:56.101Z,96452.69
2022-11-21T20:16:32.454Z,96450.16
2022-11-21T20:19:00.390Z,96453.44
2022-11-21T20:21:26.912Z,96457.09
2022-11-21T20:23:53.502Z,96470.75
2022-11-21T20:26:20.564Z,96477.03
2022-11-21T20:28:47.127Z,96484.75
2022-11-21T20:31:15.100Z,96489.34
2022-11-21T20:33:43.083Z,96487.28
2022-11-21T20:36:17.247Z,96484.09
2022-11-21T20:38:44.697Z,96475.22
2022-11-21T20:41:11.209Z,96468.97
2022-11-21T20:44:24.526Z,96471.34
2022-11-21T20:46:25.086Z,96462.84
2022-11-21T20:48:51.586Z,96470.22
2022-11-21T20:52:31.505Z,96463.50
2022-11-21T20:54:04.764Z,96451.09
2022-11-21T20:56:35.085Z,96448.84
2022-11-21T20:59:01.652Z,96446.44
2022-11-21T21:01:28.550Z,96437.09
2022-11-21T21:03:55.231Z,96428.44
2022-11-21T21:06:23.944Z,96428.13
2022-11-21T21:08:50.961Z,96422.28
2022-11-21T21:11:44.596Z,96428.44
2022-11-21T21:14:05.636Z,96429.00
2022-11-21T21:16:34.385Z,96429.91
2022-11-21T21:19:00.922Z,96444.59
2022-11-21T21:21:28.554Z,96419.16
2022-11-21T21:23:56.894Z,96420.34
2022-11-21T21:26:25.191Z,96422.41
2022-11-21T21:28:52.487Z,96423.56
2022-11-21T21:31:20.195Z,96419.47
2022-11-21T21:33:46.720Z,96406.63
2022-11-21T21:36:18.164Z,96418.13
2022-11-21T21:38:45.588Z,96399.88
2022-11-21T21:41:13.512Z,96400.09
2022-11-21T21:43:40.266Z,96392.97
2022-11-21T21:46:10.734Z,96389.44
2022-11-21T21:48:37.902Z,96387.81
2022-11-21T21:51:18.080Z,96376.91
2022-11-21T21:53:44.863Z,96370.84
2022-11-21T21:56:11.732Z,96365.97
2022-11-21T21:58:40.751Z,96361.66
2022-11-21T22:01:07.998Z,96354.78
2022-11-21T22:03:34.582Z,96351.84
2022-11-21T22:06:02.568Z,96341.84
2022-11-21T22:08:30.084Z,96336.38
2022-11-21T22:11:07.411Z,96338.53
2022-11-21T22:13:34.077Z,96333.38
2022-11-21T22:16:00.702Z,96328.38
2022-11-21T22:18:27.324Z,96330.66
2022-11-21T22:20:53.941Z,96321.34
2022-11-21T22:23:20.474Z,96322.72
2022-11-21T22:25:46.975Z,96319.97
2022-11-21T22:28:13.490Z,96308.59
2022-11-21T22:30:40.285Z,96306.00
2022-11-21T22:33:06.771Z,96309.16
2022-11-21T22:35:33.719Z,96300.31
2022-11-21T22:38:00.296Z,96303.03
2022-11-21T22:40:27.020Z,96291.41
2022-11-21T22:42:53.616Z,96289.25
2022-11-21T22:45:20.111Z,96284.38
2022-11-21T22:47:48.091Z,96276.50
2022-11-21T22:50:15.476Z,96267.75
2022-11-21T22:52:42.062Z,96280.59
2022-11-21T22:55:08.960Z,96275.38
2022-11-21T22:57:35.444Z,96278.53
2022-11-21T23:00:02.312Z,96274.22
2022-11-21T23:02:28.815Z,96278.56
2022-11-21T23:04:55.291Z,96274.44
2022-11-21T23:07:21.799Z,96274.91
2022-11-21T23:09:48.316Z,96269.19
2022-11-21T23:12:14.812Z,96266.47
2022-11-21T23:14:41.296Z,96262.94
2022-11-21T23:17:07.770Z,96263.50
2022-11-21T23:19:34.238Z,96259.41
2022-11-21T23:22:00.727Z,96263.19
2022-11-21T23:24:27.275Z,96249.19
2022-11-21T23:26:53.856Z,96256.34
2022-11-21T23:29:20.325Z,96267.75
2022-11-21T23:31:46.819Z,96264.53
2022-11-21T23:34:13.291Z,96265.91
2022-11-21T23:36:40.225Z,96266.25
2022-11-21T23:39:06.719Z,96268.31
2022-11-21T23:41:33.273Z,96261.81
2022-11-21T23:43:59.894Z,96267.41
2022-11-21T23:46:27.426Z,96259.88
2022-11-21T23:48:53.914Z,96255.44
2022-11-21T23:51:20.394Z,96244.97
2022-11-21T23:53:46.866Z,96244.03
2022-11-21T23:56:13.362Z,96252.16
2022-11-21T23:58:39.834Z,96244.63
